Time;durP1;ratioP1;P1;durP2;ratioP2;P2;SDS_P1;SDS_P2;PMS_P1;PMS_P2;Temp;Humidity;BMP_temperature;BMP_pressure;BME280_temperature;BME280_humidity;BME280_pressure;Samples;Min_cycle;Max_cycle;Signal;HPM_P1;HPM_P2
2022/11/16 00:01:23;;;;;;;7.33;4.93;;;;;;;10.49;84.56;99600.91;5057963;28;20233;-85
2022/11/16 00:03:53;;;;;;;8.87;5.67;;;;;;;10.46;84.13;99612.66;5056708;28;20229;-82
2022/11/16 00:06:22;;;;;;;6.93;5.07;;;;;;;10.44;84.72;99611.94;5052761;28;20250;-82
2022/11/16 00:11:31;;;;;;;5.37;4.47;;;;;;;10.41;84.74;99610.34;5055027;28;20201;-80
2022/11/16 00:13:57;;;;;;;6.53;5.10;;;;;;;10.41;84.73;99598.84;5052909;28;20720;-81
2022/11/16 00:16:25;;;;;;;6.57;5.47;;;;;;;10.38;84.89;99589.31;5054518;28;20214;-82
2022/11/16 00:18:56;;;;;;;6.13;5.00;;;;;;;10.37;85.02;99592.94;5058270;28;20572;-84
2022/11/16 00:21:22;;;;;;;6.43;5.20;;;;;;;10.36;85.18;99590.41;5057923;28;20212;-81
2022/11/16 00:23:49;;;;;;;5.20;4.70;;;;;;;10.35;85.05;99584.25;5058197;28;20285;-84
2022/11/16 00:26:15;;;;;;;6.83;5.37;;;;;;;10.34;85.46;99585.22;5054736;28;20207;-84
2022/11/16 00:28:42;;;;;;;7.37;4.10;;;;;;;10.32;85.29;99587.13;5062250;28;20309;-86
2022/11/16 00:31:09;;;;;;;6.37;5.20;;;;;;;10.32;85.46;99587.13;5061995;28;20735;-83
2022/11/16 00:33:39;;;;;;;5.67;4.33;;;;;;;10.31;85.45;99582.78;5060096;28;20206;-82
2022/11/16 00:36:08;;;;;;;5.13;4.47;;;;;;;10.29;85.82;99579.38;5057344;28;20252;-82
2022/11/16 00:38:35;;;;;;;5.50;3.77;;;;;;;10.29;85.38;99583.88;5051571;28;20260;-82
2022/11/16 00:41:02;;;;;;;5.60;4.77;;;;;;;10.29;85.46;99587.38;5049178;28;20215;-81
2022/11/16 00:43:28;;;;;;;5.93;4.87;;;;;;;10.30;85.25;99580.25;5045999;28;20332;-80
2022/11/16 00:45:55;;;;;;;6.00;5.23;;;;;;;10.28;85.52;99576.84;5054345;28;20214;-81
2022/11/16 00:48:22;;;;;;;6.30;4.83;;;;;;;10.27;85.41;99578.66;5053042;28;20222;-82
2022/11/16 00:50:50;;;;;;;6.23;5.30;;;;;;;10.28;85.30;99571.53;5051402;28;20202;-81
2022/11/16 00:53:18;;;;;;;8.27;5.93;;;;;;;10.26;85.40;99568.13;5051840;28;20251;-83
2022/11/16 00:55:47;;;;;;;11.73;6.20;;;;;;;10.25;85.53;99564.63;5050359;28;20209;-83
2022/11/16 00:58:14;;;;;;;8.17;5.87;;;;;;;10.25;85.42;99566.44;5048325;28;20719;-82
2022/11/16 01:00:41;;;;;;;7.17;5.47;;;;;;;10.24;85.40;99570.91;5060063;28;20205;-83
2022/11/16 01:03:08;;;;;;;6.50;5.40;;;;;;;10.23;85.17;99568.38;5050053;28;20199;-82
2022/11/16 01:05:35;;;;;;;7.57;5.60;;;;;;;10.22;85.53;99570.19;5062343;28;20296;-84
2022/11/16 01:08:03;;;;;;;6.37;5.53;;;;;;;10.21;85.45;99568.50;5050305;28;20249;-85
2022/11/16 01:10:30;;;;;;;7.47;5.87;;;;;;;10.21;85.61;99570.34;5052909;28;20198;-84
2022/11/16 01:12:55;;;;;;;6.33;5.57;;;;;;;10.20;85.85;99563.31;5050987;28;20233;-81
2022/11/16 01:15:24;;;;;;;9.00;5.00;;;;;;;10.19;85.60;99561.63;5050736;28;20213;-83
2022/11/16 01:17:53;;;;;;;6.00;4.57;;;;;;;10.19;85.82;99556.31;5056780;28;20228;-80
2022/11/16 01:20:21;;;;;;;5.17;4.50;;;;;;;10.17;85.97;99552.88;5056856;28;20224;-83
2022/11/16 01:22:48;;;;;;;5.77;4.50;;;;;;;10.17;85.50;99553.72;5054206;28;20756;-81
2022/11/16 01:25:16;;;;;;;6.17;4.80;;;;;;;10.17;85.48;99547.56;5044898;28;20201;-82
2022/11/16 01:27:43;;;;;;;6.57;4.43;;;;;;;10.16;85.63;99541.41;5048069;28;20733;-81
2022/11/16 01:30:12;;;;;;;6.53;4.80;;;;;;;10.17;85.38;99542.25;5052188;28;20197;-82
2022/11/16 01:32:38;;;;;;;6.33;4.83;;;;;;;10.17;85.47;99539.56;5047036;28;20217;-81
2022/11/16 01:35:06;;;;;;;7.27;4.90;;;;;;;10.17;85.45;99535.09;5051814;28;20712;-84
2022/11/16 01:37:33;;;;;;;6.60;4.37;;;;;;;10.18;85.46;99525.31;5052997;28;20675;-81
2022/11/16 01:39:59;;;;;;;4.70;4.20;;;;;;;10.16;85.49;99517.44;5058737;28;20206;-85
2022/11/16 01:42:29;;;;;;;6.77;4.40;;;;;;;10.16;85.29;99517.44;5049508;28;20209;-81
2022/11/16 01:45:06;;;;;;;6.30;4.90;;;;;;;10.14;85.16;99527.34;5047371;28;20211;-82
2022/11/16 01:47:33;;;;;;;6.33;4.60;;;;;;;10.14;85.44;99522.03;5053113;28;20222;-84
2022/11/16 01:50:04;;;;;;;6.87;4.83;;;;;;;10.13;85.07;99523.00;5050935;28;20229;-82
2022/11/16 01:52:33;;;;;;;5.57;4.97;;;;;;;10.13;85.37;99512.38;5044147;28;20679;-81
2022/11/16 01:55:00;;;;;;;6.60;5.03;;;;;;;10.11;85.25;99516.97;5052188;28;20198;-82
2022/11/16 01:57:35;;;;;;;5.17;4.17;;;;;;;10.10;85.07;99508.13;5047977;28;20226;-81
2022/11/16 02:00:05;;;;;;;6.57;4.80;;;;;;;10.09;85.08;99506.44;5048676;28;20212;-81
2022/11/16 02:02:32;;;;;;;6.17;5.07;;;;;;;10.09;84.89;99505.59;5044058;28;20202;-81
2022/11/16 02:05:00;;;;;;;6.40;5.00;;;;;;;10.08;85.01;99502.09;5048381;28;20582;-81
2022/11/16 02:10:39;;;;;;;5.53;5.03;;;;;;;10.06;84.69;99505.81;5052559;28;20220;-81
2022/11/16 02:13:20;;;;;;;8.93;5.97;;;;;;;10.04;84.89;99500.63;5054094;28;20264;-81
2022/11/16 02:15:51;;;;;;;7.83;5.23;;;;;;;10.03;84.93;99493.59;5045189;28;20197;-81
2022/11/16 02:18:30;;;;;;;8.50;5.73;;;;;;;10.04;84.88;99491.78;5050968;28;20230;-81
2022/11/16 02:21:21;;;;;;;6.53;5.67;;;;;;;10.02;85.11;99502.59;5063617;28;20204;-81
2022/11/16 02:24:16;;;;;;;5.90;5.13;;;;;;;10.00;84.94;99493.88;5048965;28;20252;-81
2022/11/16 02:27:02;;;;;;;7.93;5.83;;;;;;;10.00;85.15;99495.69;5013326;28;20221;-81
2022/11/16 02:29:35;;;;;;;7.00;5.40;;;;;;;9.99;85.11;99489.53;5053521;28;20215;-82
2022/11/16 02:32:06;;;;;;;7.20;5.83;;;;;;;9.99;85.16;99494.00;5053371;28;20206;-82
2022/11/16 02:34:38;;;;;;;6.97;5.50;;;;;;;9.98;85.43;99490.50;5052816;28;20197;-83
2022/11/16 02:37:07;;;;;;;6.60;5.47;;;;;;;9.95;84.93;99489.88;5053589;28;20230;-82
2022/11/16 02:39:35;;;;;;;6.90;5.47;;;;;;;9.95;85.15;99485.41;5054544;28;20206;-80
2022/11/16 02:42:05;;;;;;;7.10;5.70;;;;;;;9.95;85.68;99492.53;5053800;28;20221;-81
2022/11/16 02:44:37;;;;;;;7.03;5.23;;;;;;;9.95;85.72;99489.88;5052995;28;20202;-82
2022/11/16 02:47:08;;;;;;;6.53;5.23;;;;;;;9.95;85.69;99495.19;5052913;28;20218;-81
2022/11/16 02:49:40;;;;;;;7.63;5.67;;;;;;;9.95;86.10;99497.84;5053407;28;20218;-81
2022/11/16 02:52:09;;;;;;;7.20;5.60;;;;;;;9.94;86.16;99489.03;5053737;28;20198;-81
2022/11/16 02:54:36;;;;;;;10.10;5.50;;;;;;;9.94;85.87;99497.00;5048647;28;20696;-83
2022/11/16 02:57:30;;;;;;;7.40;5.27;;;;;;;9.94;86.40;99504.16;5048468;28;20235;-83
2022/11/16 02:59:59;;;;;;;7.07;5.50;;;;;;;9.93;86.10;99505.09;5044288;28;20203;-83
2022/11/16 03:02:30;;;;;;;6.87;5.60;;;;;;;9.91;85.99;99493.75;5043826;28;20202;-83
2022/11/16 03:05:02;;;;;;;7.97;5.30;;;;;;;9.91;85.99;99501.72;5046176;28;20607;-81
2022/11/16 03:07:32;;;;;;;8.67;5.00;;;;;;;9.91;86.69;99504.38;5043812;28;20277;-81
2022/11/16 03:10:00;;;;;;;5.17;4.43;;;;;;;9.88;86.76;99499.31;5046163;28;20215;-82
2022/11/16 03:12:33;;;;;;;8.03;5.53;;;;;;;9.88;86.78;99491.31;5044711;28;20200;-82
2022/11/16 03:15:05;;;;;;;6.77;5.00;;;;;;;9.86;86.47;99495.91;5046796;28;20207;-81
2022/11/16 03:17:38;;;;;;;9.00;4.90;;;;;;;9.86;86.49;99493.25;5046129;28;20227;-82
2022/11/16 03:20:08;;;;;;;6.17;5.13;;;;;;;9.83;86.78;99499.69;5045835;28;20209;-82
2022/11/16 03:22:40;;;;;;;6.07;4.97;;;;;;;9.82;86.78;99489.16;5052751;28;20202;-82
2022/11/16 03:25:09;;;;;;;8.03;5.33;;;;;;;9.81;86.58;99503.44;5046525;28;20206;-82
2022/11/16 03:27:39;;;;;;;7.00;5.03;;;;;;;9.79;87.08;99506.19;5046847;28;20226;-81
2022/11/16 03:30:08;;;;;;;6.93;5.43;;;;;;;9.79;86.97;99498.22;5057293;28;20230;-82
2022/11/16 03:32:43;;;;;;;6.40;5.27;;;;;;;9.80;87.28;99507.03;5051831;28;20198;-82
2022/11/16 03:35:16;;;;;;;6.57;5.30;;;;;;;9.78;87.45;99501.84;5050646;28;20205;-81
2022/11/16 03:37:44;;;;;;;6.67;5.43;;;;;;;9.78;87.54;99508.97;5046743;28;20234;-82
2022/11/16 03:40:12;;;;;;;6.97;5.10;;;;;;;9.75;87.78;99500.28;5052227;28;20198;-82
2022/11/16 03:42:42;;;;;;;7.23;5.30;;;;;;;9.74;87.51;99509.22;5052718;28;20210;-81
2022/11/16 03:45:12;;;;;;;6.77;5.03;;;;;;;9.73;87.37;99507.50;5053688;28;20213;-82
2022/11/16 03:47:39;;;;;;;6.57;5.40;;;;;;;9.72;87.74;99510.28;5047172;28;20222;-82
2022/11/16 03:50:07;;;;;;;5.40;4.63;;;;;;;9.71;87.86;99498.81;5051199;28;20225;-82
2022/11/16 03:52:34;;;;;;;7.60;4.97;;;;;;;9.71;88.33;99498.81;5049875;28;20206;-82
2022/11/16 03:55:01;;;;;;;8.93;5.57;;;;;;;9.70;88.57;99499.78;5052920;28;20240;-81
2022/11/16 03:57:27;;;;;;;9.10;6.67;;;;;;;9.70;88.26;99497.13;5051943;28;20224;-82
2022/11/16 03:59:54;;;;;;;8.67;6.33;;;;;;;9.68;88.06;99500.84;5057037;28;20202;-82
2022/11/16 04:02:22;;;;;;;5.93;5.30;;;;;;;9.66;88.26;99495.69;5047792;28;20201;-82
2022/11/16 04:24:14;;;;;;;7.30;5.83;;;;;;;9.63;88.61;99493.25;5054743;28;20588;-84
2022/11/16 04:29:28;;;;;;;9.60;7.07;;;;;;;9.61;88.68;99492.53;5051442;28;20344;-84
2022/11/16 04:40:09;;;;;;;10.13;6.40;;;;;;;9.59;89.15;99499.78;5051146;28;20197;-84
2022/11/16 04:42:36;;;;;;;8.73;7.10;;;;;;;9.59;89.43;99496.28;5058298;28;20201;-83
2022/11/16 04:47:49;;;;;;;8.90;6.83;;;;;;;9.58;89.24;99510.53;5038214;28;20711;-84
2022/11/16 04:50:17;;;;;;;9.57;6.87;;;;;;;9.59;89.57;99509.56;5043803;28;20229;-83
2022/11/16 04:52:44;;;;;;;8.97;7.40;;;;;;;9.58;89.42;99511.38;5043550;28;20198;-83
2022/11/16 04:55:11;;;;;;;10.20;6.80;;;;;;;9.58;89.26;99508.72;5050958;28;20202;-84
2022/11/16 04:57:38;;;;;;;9.27;6.90;;;;;;;9.57;89.92;99504.34;5053067;28;20226;-83
2022/11/16 05:00:06;;;;;;;10.07;8.07;;;;;;;9.58;89.34;99502.56;5049038;28;20209;-83
2022/11/16 05:02:33;;;;;;;13.57;8.17;;;;;;;9.58;90.08;99503.41;5042403;28;20232;-83
2022/11/16 05:04:59;;;;;;;13.13;9.03;;;;;;;9.58;89.87;99507.88;5044889;28;20206;-83
2022/11/16 05:07:27;;;;;;;12.00;8.87;;;;;;;9.57;89.61;99500.84;5041061;28;20237;-83
2022/11/16 05:09:53;;;;;;;13.57;9.40;;;;;;;9.55;89.84;99497.47;5048788;28;20237;-83
2022/11/16 05:12:22;;;;;;;13.87;9.70;;;;;;;9.53;90.04;99510.88;5043344;28;20210;-84
2022/11/16 05:14:48;;;;;;;14.97;10.73;;;;;;;9.51;90.14;99503.97;5051584;28;20206;-80
2022/11/16 05:17:16;;;;;;;15.77;11.07;;;;;;;9.49;90.01;99504.13;5052951;28;20218;-81
2022/11/16 05:22:29;;;;;;;16.07;11.80;;;;;;;9.44;89.99;99508.94;5049247;28;20212;-83
2022/11/16 05:24:55;;;;;;;17.50;12.37;;;;;;;9.41;90.32;99511.81;5048505;28;20217;-82
2022/11/16 05:27:24;;;;;;;18.20;13.60;;;;;;;9.37;90.68;99511.19;5055565;28;20251;-82
2022/11/16 05:29:51;;;;;;;18.53;13.60;;;;;;;9.33;90.48;99509.75;5058646;28;20610;-81
2022/11/16 05:32:18;;;;;;;16.70;12.93;;;;;;;9.28;90.76;99514.56;5062973;28;20204;-82
2022/11/16 05:34:44;;;;;;;18.97;13.13;;;;;;;9.26;90.91;99515.66;5061689;28;20209;-82
2022/11/16 05:37:12;;;;;;;17.37;13.40;;;;;;;9.23;91.13;99529.16;5060363;28;20597;-82
2022/11/16 05:39:39;;;;;;;18.23;13.57;;;;;;;9.19;91.17;99514.41;5063143;28;20206;-82
2022/11/16 05:42:07;;;;;;;20.70;14.47;;;;;;;9.16;91.44;99517.28;5053946;28;20216;-82
2022/11/16 05:44:33;;;;;;;22.47;15.00;;;;;;;9.12;92.33;99515.84;5059515;28;20212;-81
2022/11/16 05:47:01;;;;;;;23.07;14.73;;;;;;;9.08;92.00;99517.88;5060299;28;20217;-80
2022/11/16 05:49:27;;;;;;;23.00;15.73;;;;;;;9.03;92.28;99523.53;5054915;28;20308;-81
2022/11/16 05:51:54;;;;;;;19.37;14.70;;;;;;;8.98;92.33;99520.38;5052909;28;20210;-82
2022/11/16 05:54:23;;;;;;;22.40;15.30;;;;;;;8.93;92.83;99524.34;5057907;28;20202;-82
2022/11/16 05:56:51;;;;;;;24.67;15.83;;;;;;;8.89;92.31;99530.84;5057419;28;20222;-82
2022/11/16 05:59:20;;;;;;;27.07;17.13;;;;;;;8.85;93.31;99529.38;5056140;28;20202;-81
2022/11/16 06:01:46;;;;;;;25.47;17.47;;;;;;;8.80;93.30;99523.53;5052474;28;21389;-83
2022/11/16 06:04:14;;;;;;;23.60;15.73;;;;;;;8.77;93.54;99527.28;5052955;28;20216;-81
2022/11/16 06:06:41;;;;;;;22.60;16.30;;;;;;;8.75;93.41;99523.06;5059714;28;20205;-81
2022/11/16 06:09:08;;;;;;;26.20;18.20;;;;;;;8.72;94.01;99524.13;5055882;28;20213;-82
2022/11/16 06:11:36;;;;;;;26.27;15.97;;;;;;;8.69;94.36;99529.66;5055274;28;20212;-81
2022/11/16 06:14:04;;;;;;;25.50;17.13;;;;;;;8.66;94.21;99530.72;5066195;28;20205;-81
2022/11/16 06:16:31;;;;;;;25.73;17.00;;;;;;;8.63;93.97;99525.63;5056339;28;20235;-82
2022/11/16 06:18:57;;;;;;;29.73;17.80;;;;;;;8.59;95.07;99528.66;5056383;28;20221;-81
2022/11/16 06:21:24;;;;;;;27.63;17.50;;;;;;;8.57;94.87;99530.56;5056069;28;20213;-81
2022/11/16 06:23:50;;;;;;;22.20;16.47;;;;;;;8.53;94.44;99523.78;5051795;28;20216;-81
2022/11/16 06:26:17;;;;;;;26.10;17.80;;;;;;;8.49;94.72;99527.59;5053376;28;20213;-80
2022/11/16 06:28:43;;;;;;;25.30;16.70;;;;;;;8.47;95.04;99527.72;5055933;28;20221;-83
2022/11/16 06:31:11;;;;;;;26.77;17.73;;;;;;;8.42;95.29;99513.91;5056073;28;20229;-82
2022/11/16 06:33:38;;;;;;;27.43;18.10;;;;;;;8.40;95.50;99520.31;5052700;28;20205;-83
2022/11/16 06:36:05;;;;;;;25.43;17.30;;;;;;;8.36;95.09;99517.03;5058187;28;20712;-80
2022/11/16 06:38:31;;;;;;;26.10;17.10;;;;;;;8.35;95.54;99521.50;5061295;28;20237;-81
2022/11/16 06:40:58;;;;;;;26.07;16.70;;;;;;;8.32;96.19;99527.00;5062866;28;20208;-81
2022/11/16 06:43:25;;;;;;;22.43;16.17;;;;;;;8.30;96.40;99528.91;5058244;28;20203;-81
2022/11/16 06:45:54;;;;;;;27.33;17.33;;;;;;;8.28;96.09;99541.41;5059081;28;20263;-81
2022/11/16 06:48:22;;;;;;;23.27;16.67;;;;;;;8.27;96.43;99529.09;5049304;28;20229;-81
2022/11/16 06:50:50;;;;;;;26.13;17.07;;;;;;;8.26;96.91;99531.88;5053917;28;20222;-81
2022/11/16 06:53:17;;;;;;;24.17;16.80;;;;;;;8.25;96.82;99536.31;5057349;28;20209;-81
2022/11/16 06:55:44;;;;;;;25.90;16.73;;;;;;;8.24;97.29;99533.81;5058733;28;20198;-81
2022/11/16 06:58:12;;;;;;;29.80;18.20;;;;;;;8.21;97.23;99534.03;5061365;28;20233;-81
2022/11/16 07:00:38;;;;;;;23.43;16.47;;;;;;;8.20;96.67;99546.44;5064700;28;20201;-81
2022/11/16 07:03:05;;;;;;;27.77;16.97;;;;;;;8.15;97.67;99527.34;5060508;28;20212;-82
2022/11/16 07:05:33;;;;;;;24.37;16.00;;;;;;;8.12;97.93;99524.91;5063834;28;20724;-81
2022/11/16 07:07:59;;;;;;;29.43;17.37;;;;;;;8.09;97.63;99526.91;5060814;28;20233;-81
2022/11/16 07:10:26;;;;;;;21.23;15.83;;;;;;;8.03;98.47;99528.22;5060572;28;20225;-81
2022/11/16 07:12:52;;;;;;;24.73;16.33;;;;;;;8.01;98.67;99516.88;5058923;28;20228;-81
2022/11/16 07:15:19;;;;;;;25.60;16.93;;;;;;;8.00;98.62;99510.72;5062401;28;20205;-81
2022/11/16 07:17:45;;;;;;;25.80;17.67;;;;;;;7.99;98.54;99514.31;5067715;28;20581;-80
2022/11/16 07:20:12;;;;;;;26.23;16.73;;;;;;;7.99;99.01;99518.78;5069057;28;20224;-81
2022/11/16 07:22:40;;;;;;;25.30;17.00;;;;;;;7.96;99.52;99511.88;5057087;28;20652;-81
2022/11/16 07:25:08;;;;;;;23.60;17.50;;;;;;;7.94;99.74;99515.59;5058613;28;20212;-80
2022/11/16 07:27:34;;;;;;;25.00;17.13;;;;;;;7.91;99.58;99510.50;5055851;28;20233;-81
2022/11/16 07:30:01;;;;;;;28.27;17.43;;;;;;;7.89;99.50;99518.56;5056436;28;20226;-80
2022/11/16 07:32:28;;;;;;;24.60;18.23;;;;;;;7.86;99.37;99518.81;5058782;28;20252;-81
2022/11/16 07:34:55;;;;;;;25.70;18.30;;;;;;;7.84;99.75;99517.22;5054129;28;20213;-79
2022/11/16 07:37:21;;;;;;;25.30;17.77;;;;;;;7.83;100.00;99520.81;5059748;28;20232;-80
2022/11/16 07:39:49;;;;;;;26.60;18.30;;;;;;;7.78;99.76;99512.31;5052504;28;20208;-81
2022/11/16 07:42:15;;;;;;;30.10;18.80;;;;;;;7.77;99.88;99518.59;5059897;28;20288;-80
2022/11/16 07:44:42;;;;;;;33.50;20.70;;;;;;;7.76;99.90;99527.50;5061919;28;20645;-81
2022/11/16 07:47:08;;;;;;;30.57;20.23;;;;;;;7.74;100.00;99524.09;5055769;28;20248;-80
2022/11/16 07:49:35;;;;;;;30.80;20.50;;;;;;;7.73;99.54;99519.75;5056874;28;20208;-80
2022/11/16 07:52:02;;;;;;;34.10;20.47;;;;;;;7.71;100.00;99534.91;5064217;28;20550;-81
2022/11/16 07:54:28;;;;;;;32.60;21.20;;;;;;;7.68;99.97;99530.69;5057304;28;20209;-79
2022/11/16 07:56:56;;;;;;;33.40;20.77;;;;;;;7.65;99.53;99545.00;5064504;28;20225;-80
2022/11/16 07:59:22;;;;;;;30.23;20.00;;;;;;;7.64;99.98;99556.53;5052693;28;20212;-80
2022/11/16 08:01:49;;;;;;;33.70;20.47;;;;;;;7.61;99.95;99554.09;5058504;28;20198;-82
2022/11/16 08:04:16;;;;;;;33.70;19.93;;;;;;;7.57;99.91;99549.97;5053635;28;20236;-83
2022/11/16 08:06:49;;;;;;;31.77;21.03;;;;;;;7.54;99.74;99558.09;5061117;28;20225;-82
2022/11/16 08:09:16;;;;;;;28.33;18.77;;;;;;;7.52;99.96;99562.69;5054450;28;20213;-81
2022/11/16 08:11:42;;;;;;;30.67;19.90;;;;;;;7.49;99.93;99564.69;5052880;28;20739;-81
2022/11/16 08:14:11;;;;;;;31.50;20.50;;;;;;;7.48;99.93;99563.00;5057973;28;20201;-79
2022/11/16 08:16:38;;;;;;;37.53;21.80;;;;;;;7.44;100.00;99561.50;5049679;28;20592;-80
2022/11/16 08:19:04;;;;;;;35.57;20.53;;;;;;;7.43;99.39;99562.44;5054541;28;20217;-78
2022/11/16 08:21:31;;;;;;;32.40;19.73;;;;;;;7.41;99.74;99564.34;5048984;28;20202;-82
2022/11/16 08:23:58;;;;;;;30.57;19.73;;;;;;;7.36;99.44;99563.81;5056332;28;20241;-80
2022/11/16 08:26:24;;;;;;;34.03;20.57;;;;;;;7.34;98.93;99566.59;5061684;28;20655;-80
2022/11/16 08:28:52;;;;;;;34.20;21.57;;;;;;;7.30;99.49;99570.38;5050920;28;20579;-81
2022/11/16 08:31:23;;;;;;;31.43;19.63;;;;;;;7.28;99.02;99580.22;5061930;28;20675;-81
2022/11/16 08:33:50;;;;;;;31.20;20.63;;;;;;;7.23;99.07;99571.72;5057861;28;20193;-82
2022/11/16 08:36:17;;;;;;;31.60;19.87;;;;;;;7.19;99.16;99575.53;5050283;28;20206;-81
2022/11/16 08:38:43;;;;;;;33.60;20.60;;;;;;;7.14;99.05;99569.72;5061783;28;20221;-81
2022/11/16 08:41:10;;;;;;;31.73;19.73;;;;;;;7.13;98.92;99570.66;5056923;28;20202;-83
2022/11/16 08:43:38;;;;;;;34.03;20.53;;;;;;;7.12;99.55;99571.59;5058682;28;20204;-83
2022/11/16 08:46:05;;;;;;;30.07;19.77;;;;;;;7.12;99.47;99568.97;5058195;28;20212;-81
2022/11/16 08:48:33;;;;;;;34.43;20.77;;;;;;;7.13;99.51;99578.59;5063640;28;20233;-83
2022/11/16 08:51:02;;;;;;;35.93;21.57;;;;;;;7.10;99.80;99578.78;5054065;28;20232;-82
2022/11/16 08:53:29;;;;;;;37.07;20.70;;;;;;;7.08;99.99;99586.84;5062297;28;20225;-82
2022/11/16 08:55:55;;;;;;;35.33;21.17;;;;;;;7.08;99.50;99586.00;5066315;28;20223;-83
2022/11/16 08:58:22;;;;;;;35.13;21.57;;;;;;;7.08;100.00;99592.13;5058396;28;20222;-83
2022/11/16 09:00:48;;;;;;;36.90;22.40;;;;;;;7.10;100.00;99595.53;5060637;28;20197;-81
2022/11/16 09:03:14;;;;;;;35.83;21.37;;;;;;;7.13;100.00;99597.13;5060526;28;20206;-81
2022/11/16 09:05:42;;;;;;;34.40;21.17;;;;;;;7.15;100.00;99596.09;5065383;28;20200;-83
2022/11/16 09:08:10;;;;;;;35.33;22.53;;;;;;;7.18;100.00;99600.31;5056433;28;20312;-80
2022/11/16 09:10:37;;;;;;;34.93;20.67;;;;;;;7.20;100.00;99593.13;5064052;28;20216;-83
2022/11/16 09:13:04;;;;;;;32.37;21.40;;;;;;;7.20;100.00;99601.06;5052309;28;20259;-81
2022/11/16 09:15:30;;;;;;;32.90;20.43;;;;;;;7.18;100.00;99592.34;5063190;28;20197;-83
2022/11/16 09:17:57;;;;;;;33.77;21.70;;;;;;;7.16;100.00;99592.50;5054712;28;20229;-83
2022/11/16 09:20:25;;;;;;;33.03;21.13;;;;;;;7.15;100.00;99589.94;5064336;28;20212;-82
2022/11/16 09:22:53;;;;;;;33.37;21.63;;;;;;;7.14;100.00;99591.75;5062291;28;20216;-82
2022/11/16 09:25:19;;;;;;;28.10;21.03;;;;;;;7.13;100.00;99597.13;5062473;28;20210;-83
2022/11/16 09:27:46;;;;;;;31.27;20.60;;;;;;;7.10;100.00;99586.75;5063827;28;20249;-81
2022/11/16 09:30:13;;;;;;;30.57;20.63;;;;;;;7.05;100.00;99584.38;5060153;28;20224;-83
2022/11/16 09:32:40;;;;;;;34.47;21.70;;;;;;;7.02;100.00;99587.22;5061281;28;20205;-83
2022/11/16 09:35:07;;;;;;;29.97;21.40;;;;;;;7.00;100.00;99594.41;5052987;28;20718;-83
2022/11/16 09:37:33;;;;;;;31.33;21.10;;;;;;;7.00;100.00;99597.06;5064724;28;20216;-83
2022/11/16 09:40:01;;;;;;;26.63;19.20;;;;;;;7.01;100.00;99604.06;5060459;28;20202;-81
2022/11/16 09:42:43;;;;;;;31.13;21.53;;;;;;;7.03;100.00;99604.81;5063503;28;20251;-80
2022/11/16 09:45:18;;;;;;;31.37;21.43;;;;;;;7.05;100.00;99599.41;5059159;28;20202;-82
2022/11/16 09:47:48;;;;;;;30.47;21.63;;;;;;;7.07;100.00;99598.38;5067361;28;20227;-83
2022/11/16 09:50:37;;;;;;;30.67;21.50;;;;;;;7.10;100.00;99597.34;5062725;28;20209;-83
2022/11/16 09:53:20;;;;;;;28.73;21.00;;;;;;;7.11;100.00;99593.72;5061088;28;20700;-81
2022/11/16 09:55:50;;;;;;;32.07;21.03;;;;;;;7.11;100.00;99596.38;5058687;28;20208;-83
2022/11/16 09:58:22;;;;;;;33.80;21.37;;;;;;;7.10;100.00;99598.19;5059282;28;20682;-81
2022/11/16 10:00:55;;;;;;;31.37;21.87;;;;;;;7.09;100.00;99595.63;5059129;28;20193;-83
2022/11/16 10:03:25;;;;;;;32.33;21.47;;;;;;;7.11;100.00;99604.31;5056845;28;20197;-83
2022/11/16 10:05:56;;;;;;;34.27;21.37;;;;;;;7.09;100.00;99601.78;5060883;28;20211;-82
2022/11/16 10:08:35;;;;;;;31.57;21.10;;;;;;;7.10;100.00;99605.28;5057735;28;20232;-81
2022/11/16 10:11:23;;;;;;;28.93;20.10;;;;;;;7.08;100.00;99604.53;5059309;28;20819;-83
2022/11/16 10:14:00;;;;;;;35.90;22.13;;;;;;;7.09;100.00;99600.94;5060086;28;20201;-83
2022/11/16 10:16:33;;;;;;;32.17;20.63;;;;;;;7.07;100.00;99603.66;5056344;28;20208;-82
2022/11/16 10:19:07;;;;;;;30.67;20.33;;;;;;;7.08;100.00;99588.63;5054694;28;20588;-81
2022/11/16 10:21:47;;;;;;;36.60;22.23;;;;;;;7.06;100.00;99593.19;5050423;28;20721;-82
2022/11/16 10:24:28;;;;;;;26.50;19.03;;;;;;;7.04;100.00;99605.66;5055726;28;20240;-82
2022/11/16 10:27:15;;;;;;;29.23;19.20;;;;;;;7.04;100.00;99592.44;5059760;28;20232;-82
2022/11/16 10:29:54;;;;;;;26.27;18.43;;;;;;;7.02;100.00;99597.81;5061722;28;20207;-82
2022/11/16 10:32:27;;;;;;;29.27;20.17;;;;;;;7.04;100.00;99581.84;5054725;28;20217;-81
2022/11/16 10:34:55;;;;;;;31.67;20.33;;;;;;;7.04;100.00;99584.50;5062743;28;20216;-81
2022/11/16 10:37:28;;;;;;;28.47;18.73;;;;;;;7.02;100.00;99584.59;5057907;28;20229;-82
2022/11/16 10:39:54;;;;;;;28.03;18.87;;;;;;;7.03;100.00;99583.63;5057658;28;20232;-83
2022/11/16 10:42:30;;;;;;;27.60;17.73;;;;;;;7.04;100.00;99576.53;5054789;28;20484;-82
2022/11/16 10:45:02;;;;;;;24.17;16.97;;;;;;;7.03;100.00;99586.28;5059810;28;20202;-81
2022/11/16 10:47:37;;;;;;;25.53;17.17;;;;;;;6.99;100.00;99584.78;5056048;28;20236;-82
2022/11/16 10:50:18;;;;;;;25.50;16.63;;;;;;;6.97;100.00;99578.75;5063067;28;20205;-84
2022/11/16 10:52:44;;;;;;;25.40;17.17;;;;;;;6.95;100.00;99576.22;5063034;28;20219;-84
2022/11/16 10:55:14;;;;;;;26.83;16.63;;;;;;;6.94;100.00;99574.50;5058370;28;20208;-84
2022/11/16 10:57:59;;;;;;;25.90;16.90;;;;;;;6.93;100.00;99566.66;5053283;28;20221;-83
2022/11/16 11:00:35;;;;;;;24.97;16.83;;;;;;;6.92;100.00;99565.81;5064107;28;20212;-82
2022/11/16 11:03:01;;;;;;;28.17;18.43;;;;;;;6.94;100.00;99577.16;5060058;28;20762;-82
2022/11/16 11:05:28;;;;;;;26.13;17.70;;;;;;;6.97;100.00;99574.31;5049271;28;20211;-83
2022/11/16 11:08:01;;;;;;;25.13;17.93;;;;;;;7.00;100.00;99567.94;5058263;28;20649;-83
2022/11/16 11:10:31;;;;;;;26.70;17.97;;;;;;;7.02;100.00;99571.34;5064315;28;20621;-83
2022/11/16 11:13:22;;;;;;;27.77;17.53;;;;;;;7.03;100.00;99562.47;5058173;28;20209;-83
2022/11/16 11:15:50;;;;;;;27.63;17.03;;;;;;;7.03;100.00;99566.91;5050768;28;20666;-85
2022/11/16 11:18:24;;;;;;;25.07;16.10;;;;;;;7.02;100.00;99573.16;5056807;28;20272;-83
2022/11/16 11:21:04;;;;;;;27.10;16.87;;;;;;;7.01;100.00;99569.66;5053969;28;20212;-84
2022/11/16 11:23:36;;;;;;;26.27;16.73;;;;;;;7.01;100.00;99566.16;5045189;28;20246;-83
2022/11/16 11:26:03;;;;;;;23.63;16.63;;;;;;;7.01;100.00;99566.16;5055014;28;20814;-84
2022/11/16 11:28:33;;;;;;;25.00;17.53;;;;;;;7.01;100.00;99564.34;5054009;28;20229;-83
2022/11/16 11:31:03;;;;;;;23.83;16.27;;;;;;;6.99;100.00;99563.59;5056778;28;20584;-84
2022/11/16 11:33:33;;;;;;;24.43;16.80;;;;;;;6.98;100.00;99556.63;5052883;28;20209;-84
2022/11/16 11:36:04;;;;;;;23.53;16.33;;;;;;;6.99;100.00;99560.94;5055895;28;20206;-84
2022/11/16 11:38:31;;;;;;;21.17;15.50;;;;;;;6.96;100.00;99559.38;5061128;28;20224;-84
2022/11/16 11:41:00;;;;;;;26.37;17.23;;;;;;;6.98;100.00;99561.94;5053612;28;20209;-84
2022/11/16 11:43:28;;;;;;;24.93;17.40;;;;;;;6.98;100.00;99551.34;5063914;28;20250;-83
2022/11/16 11:46:03;;;;;;;24.80;16.53;;;;;;;6.97;100.00;99560.25;5057359;28;20215;-84
2022/11/16 11:48:39;;;;;;;24.50;16.13;;;;;;;6.95;100.00;99557.69;5057688;28;20237;-84
2022/11/16 11:51:13;;;;;;;26.90;17.80;;;;;;;6.97;100.00;99560.25;5061872;28;20224;-83
2022/11/16 11:53:53;;;;;;;24.23;15.83;;;;;;;6.98;100.00;99556.63;5060685;28;20236;-83
2022/11/16 11:56:20;;;;;;;28.70;17.17;;;;;;;7.00;100.00;99552.06;5061225;28;20705;-83
2022/11/16 11:58:48;;;;;;;30.43;18.80;;;;;;;7.02;100.00;99560.75;5060304;28;20229;-85
2022/11/16 12:01:47;;;;;;;30.37;18.40;;;;;;;7.05;100.00;99551.78;5060873;28;20284;-87
2022/11/16 12:04:51;;;;;;;32.23;20.23;;;;;;;7.09;100.00;99562.06;5055271;28;20664;-84
2022/11/16 12:07:31;;;;;;;29.60;18.93;;;;;;;7.14;100.00;99553.81;5057623;28;20236;-85
2022/11/16 12:10:05;;;;;;;30.73;19.00;;;;;;;7.16;100.00;99551.94;5059853;28;20205;-84
2022/11/16 12:12:47;;;;;;;29.53;18.90;;;;;;;7.17;100.00;99554.44;5063803;28;20219;-85
2022/11/16 12:15:31;;;;;;;29.50;18.00;;;;;;;7.19;100.00;99560.50;5062045;28;20714;-85
2022/11/16 12:18:14;;;;;;;29.33;18.10;;;;;;;7.19;100.00;99552.53;5056281;28;20221;-87
2022/11/16 12:20:48;;;;;;;31.47;18.17;;;;;;;7.21;100.00;99555.94;5053916;28;20200;-86